createdAt,value
2018-06-03T00:03:08.199Z,20.90
2018-06-03T00:08:11.475Z,20.90
2018-06-03T00:13:14.735Z,20.80
2018-06-03T00:18:17.992Z,20.80
2018-06-03T00:23:22.015Z,20.70
2018-06-03T00:28:25.284Z,20.70
2018-06-03T00:33:28.552Z,20.80
2018-06-03T00:38:31.820Z,20.80
2018-06-03T00:43:35.104Z,20.70
2018-06-03T00:48:38.363Z,20.70
2018-06-03T00:53:41.669Z,20.70
2018-06-03T00:58:44.952Z,20.60
2018-06-03T01:03:48.389Z,20.40
2018-06-03T01:08:52.415Z,20.00
2018-06-03T01:13:55.700Z,19.90
2018-06-03T01:18:58.958Z,20.10
2018-06-03T01:24:02.243Z,20.30
2018-06-03T01:29:05.505Z,20.30
2018-06-03T01:34:08.779Z,20.00
2018-06-03T01:39:13.687Z,18.80
2018-06-03T01:44:17.077Z,18.70
2018-06-03T01:49:20.339Z,18.10
2018-06-03T01:54:23.609Z,18.20
2018-06-03T01:59:26.890Z,17.80
2018-06-03T02:04:30.177Z,18.20
2018-06-03T02:09:33.459Z,18.50
2018-06-03T02:14:36.739Z,18.80
2018-06-03T02:19:40.031Z,19.50
2018-06-03T02:24:43.284Z,19.80
2018-06-03T02:29:46.554Z,19.60
2018-06-03T02:34:49.815Z,19.60
2018-06-03T02:39:53.083Z,19.30
2018-06-03T02:44:56.347Z,19.50
2018-06-03T02:49:59.619Z,19.80
2018-06-03T02:55:02.895Z,20.00
2018-06-03T03:00:06.179Z,20.10
2018-06-03T03:05:09.502Z,20.10
2018-06-03T03:10:12.767Z,20.20
2018-06-03T03:15:16.915Z,20.20
2018-06-03T03:20:21.171Z,20.10
2018-06-03T03:25:24.454Z,20.20
2018-06-03T03:30:27.718Z,20.30
2018-06-03T03:35:30.984Z,20.30
2018-06-03T03:40:34.235Z,20.40
2018-06-03T03:45:38.259Z,20.10
2018-06-03T03:50:41.526Z,20.10
2018-06-03T03:55:44.783Z,20.20
2018-06-03T04:00:49.035Z,20.40
2018-06-03T04:05:52.311Z,20.30
2018-06-03T04:10:55.570Z,20.40
2018-06-03T04:15:58.843Z,20.50
2018-06-03T04:21:02.119Z,20.60
2018-06-03T04:26:05.380Z,20.30
2018-06-03T04:31:09.538Z,20.30
2018-06-03T04:36:46.239Z,20.30
2018-06-03T04:41:50.983Z,20.50
2018-06-03T04:46:54.931Z,20.70
2018-06-03T04:51:58.879Z,20.60
2018-06-03T04:57:02.829Z,20.90
2018-06-03T05:02:06.819Z,21.00
2018-06-03T05:07:10.853Z,21.20
2018-06-03T05:12:14.791Z,21.10
2018-06-03T05:17:18.774Z,21.30
2018-06-03T05:22:22.728Z,21.40
2018-06-03T05:27:26.679Z,21.40
2018-06-03T05:32:30.631Z,21.50
2018-06-03T05:37:34.584Z,21.70
2018-06-03T05:42:38.534Z,21.90
2018-06-03T05:47:42.486Z,22.00
2018-06-03T05:52:46.426Z,21.90
2018-06-03T05:57:50.379Z,21.80
2018-06-03T06:02:54.360Z,21.80
2018-06-03T06:07:58.489Z,21.70
2018-06-03T06:13:02.881Z,21.40
2018-06-03T06:18:07.100Z,21.80
2018-06-03T06:23:11.134Z,22.00
2018-06-03T06:33:18.752Z,22.40
2018-06-03T06:38:22.696Z,22.30
2018-06-03T06:48:33.943Z,22.30
2018-06-03T06:53:38.677Z,22.40
2018-06-03T06:58:42.648Z,22.40
2018-06-03T07:03:47.599Z,22.60
2018-06-03T07:08:51.583Z,22.30
2018-06-03T07:13:55.565Z,22.00
2018-06-03T07:18:59.520Z,22.20
2018-06-03T07:24:03.507Z,22.40
2018-06-03T07:29:07.480Z,22.70
2018-06-03T07:34:11.446Z,22.90
2018-06-03T07:39:15.636Z,22.80
2018-06-03T07:44:20.367Z,22.80
2018-06-03T07:49:24.322Z,22.80
2018-06-03T07:54:28.288Z,22.80
2018-06-03T07:59:32.227Z,22.90
2018-06-03T08:09:39.843Z,23.20
2018-06-03T08:14:43.816Z,23.30
2018-06-03T08:19:47.787Z,23.40
2018-06-03T08:24:51.763Z,23.60
2018-06-03T08:29:55.783Z,23.60
2018-06-03T08:34:59.705Z,23.90
2018-06-03T08:45:07.283Z,23.90
2018-06-03T08:50:11.363Z,23.90
2018-06-03T08:55:15.330Z,23.80
2018-06-03T09:00:20.161Z,23.70
2018-06-03T09:05:24.087Z,23.50
2018-06-03T09:10:28.157Z,23.40
2018-06-03T09:15:32.148Z,23.30
2018-06-03T09:20:36.102Z,23.20
2018-06-03T09:25:40.059Z,23.80
2018-06-03T09:30:44.006Z,24.10
2018-06-03T09:35:47.976Z,24.60
2018-06-03T09:40:51.928Z,25.00
2018-06-03T09:45:58.440Z,25.50
2018-06-03T09:51:02.431Z,26.00
2018-06-03T09:56:06.550Z,26.20
2018-06-03T10:01:10.508Z,26.40
2018-06-03T10:11:18.063Z,28.00
2018-06-03T10:16:22.015Z,29.80
2018-06-03T10:21:25.997Z,31.00
2018-06-03T10:26:29.957Z,31.50
2018-06-03T10:31:33.962Z,32.30
2018-06-03T10:36:37.907Z,32.10
2018-06-03T10:41:41.880Z,31.20
2018-06-03T10:51:49.415Z,32.10
2018-06-03T10:56:53.386Z,32.70
2018-06-03T11:01:59.849Z,33.50
2018-06-03T11:07:03.815Z,33.30
2018-06-03T11:12:07.792Z,32.70
2018-06-03T11:17:11.756Z,33.00
2018-06-03T11:22:15.718Z,33.10
2018-06-03T11:27:19.702Z,32.10
2018-06-03T11:32:23.655Z,31.40
2018-06-03T11:37:27.611Z,31.70
2018-06-03T11:42:31.590Z,33.00
2018-06-03T11:47:35.587Z,33.30
2018-06-03T11:52:39.595Z,33.20
2018-06-03T11:59:53.832Z,33.70
2018-06-03T12:04:57.788Z,33.10
2018-06-03T12:10:01.750Z,34.90
2018-06-03T12:15:05.699Z,35.40
2018-06-03T12:20:09.781Z,35.30
2018-06-03T12:25:13.752Z,35.70
2018-06-03T12:30:17.719Z,37.20
2018-06-03T12:35:21.878Z,35.30
2018-06-03T12:40:25.823Z,33.50
2018-06-03T12:45:29.763Z,32.40
2018-06-03T12:50:33.781Z,31.90
2018-06-03T12:55:37.732Z,31.90
2018-06-03T13:00:41.698Z,32.10
2018-06-03T13:05:45.671Z,31.20
2018-06-03T13:10:49.631Z,30.70
2018-06-03T13:15:53.582Z,31.00
2018-06-03T13:20:57.544Z,31.00
2018-06-03T13:26:01.499Z,31.70
2018-06-03T13:31:05.463Z,34.30
2018-06-03T13:36:09.425Z,33.50
2018-06-03T13:46:16.981Z,31.60
2018-06-03T13:51:21.808Z,31.00
2018-06-03T13:56:25.734Z,31.50
2018-06-03T14:06:33.340Z,32.20
2018-06-03T14:11:37.295Z,34.10
2018-06-03T14:16:41.408Z,33.00
2018-06-03T14:21:45.391Z,32.40
2018-06-03T14:26:49.359Z,32.20
2018-06-03T14:31:53.334Z,32.50
2018-06-03T14:36:57.276Z,32.60
2018-06-03T14:42:01.237Z,32.30
2018-06-03T14:47:06.087Z,31.40
2018-06-03T14:52:10.050Z,30.90
2018-06-03T14:57:14.020Z,30.80
2018-06-03T15:02:17.959Z,29.40
2018-06-03T15:07:21.923Z,29.70
2018-06-03T15:12:25.865Z,29.90
2018-06-03T15:17:29.821Z,29.80
2018-06-03T15:22:33.811Z,29.40
2018-06-03T15:27:37.793Z,29.20
2018-06-03T15:37:45.323Z,29.10
2018-06-03T15:42:49.311Z,28.90
2018-06-03T15:47:53.270Z,28.90
2018-06-03T15:52:57.335Z,28.90
2018-06-03T15:58:01.446Z,29.10
2018-06-03T16:03:05.559Z,29.40
2018-06-03T16:13:13.022Z,30.10
2018-06-03T16:18:17.045Z,29.60
2018-06-03T16:23:21.007Z,29.70
2018-06-03T16:28:24.945Z,29.10
2018-06-03T16:33:28.923Z,28.60
2018-06-03T16:38:32.803Z,28.10
2018-06-03T16:43:36.761Z,28.10
2018-06-03T16:48:40.760Z,28.20
2018-06-03T16:53:44.655Z,27.60
2018-06-03T16:58:48.617Z,27.60
2018-06-03T17:03:52.595Z,27.30
2018-06-03T17:08:56.531Z,27.20
2018-06-03T17:14:00.477Z,26.80
2018-06-03T17:19:04.444Z,26.70
2018-06-03T17:24:08.377Z,26.70
2018-06-03T17:29:12.317Z,26.50
2018-06-03T17:34:16.261Z,26.20
2018-06-03T17:39:20.191Z,26.10
2018-06-03T17:44:25.071Z,26.20
2018-06-03T17:49:29.919Z,26.30
2018-06-03T17:59:37.451Z,25.90
2018-06-03T18:04:41.423Z,25.70
2018-06-03T18:09:45.428Z,25.50
2018-06-03T18:14:49.388Z,25.60
2018-06-03T18:19:53.424Z,25.50
2018-06-03T18:24:57.426Z,25.50
2018-06-03T18:30:01.397Z,25.60
2018-06-03T18:35:05.358Z,25.30
2018-06-03T18:40:09.319Z,25.50
2018-06-03T18:45:13.305Z,25.40
2018-06-03T18:50:17.307Z,25.20
2018-06-03T18:55:21.247Z,25.00
2018-06-03T19:00:25.272Z,25.00
2018-06-03T19:05:29.277Z,24.80
2018-06-03T19:10:33.287Z,24.90
2018-06-03T19:15:37.324Z,24.90
2018-06-03T19:20:41.326Z,25.00
2018-06-03T19:25:46.196Z,25.00
2018-06-03T19:30:50.532Z,24.90
2018-06-03T19:35:54.807Z,24.80
2018-06-03T19:40:59.031Z,24.60
2018-06-03T19:46:02.907Z,24.40
2018-06-03T19:51:06.912Z,24.30
2018-06-03T19:56:10.968Z,24.20
2018-06-03T20:01:15.091Z,24.10
2018-06-03T20:06:19.278Z,24.10
2018-06-03T20:11:23.189Z,24.00
2018-06-03T20:16:27.139Z,23.90
2018-06-03T20:21:31.109Z,23.80
2018-06-03T20:31:38.711Z,23.60
2018-06-03T20:36:42.678Z,23.60
2018-06-03T20:41:46.628Z,23.50
2018-06-03T20:46:51.242Z,23.40
2018-06-03T20:51:55.223Z,23.30
2018-06-03T20:57:00.066Z,23.20
2018-06-03T21:02:04.152Z,23.10
2018-06-03T21:07:08.103Z,23.00
2018-06-03T21:12:12.031Z,23.00
2018-06-03T21:17:16.061Z,22.90
2018-06-03T21:22:20.074Z,22.90
2018-06-03T21:27:24.006Z,22.80
2018-06-03T21:32:27.975Z,22.70
2018-06-03T21:37:31.926Z,22.70
2018-06-03T21:42:35.875Z,22.60
2018-06-03T21:47:39.835Z,22.40
2018-06-03T21:52:43.799Z,22.20
2018-06-03T21:57:47.747Z,21.90
2018-06-03T22:02:51.767Z,21.50
2018-06-03T22:07:56.311Z,21.30
2018-06-03T22:13:00.286Z,21.00
2018-06-03T22:23:08.076Z,20.90
2018-06-03T22:28:12.004Z,20.80
2018-06-03T22:33:15.947Z,20.50
2018-06-03T22:38:19.907Z,20.40
2018-06-03T22:48:27.496Z,20.30
2018-06-03T22:53:31.427Z,20.40
2018-06-03T23:03:38.987Z,20.50
2018-06-03T23:08:42.939Z,20.30
2018-06-03T23:13:46.904Z,20.00
2018-06-03T23:18:50.866Z,20.00
2018-06-03T23:28:58.524Z,19.70
2018-06-03T23:34:02.479Z,19.60
2018-06-03T23:39:07.142Z,19.70
2018-06-03T23:44:11.099Z,19.50
2018-06-03T23:49:15.114Z,19.60
2018-06-03T23:54:19.075Z,19.70
2018-06-03T23:59:23.039Z,19.90
